Time;durP1;ratioP1;P1;durP2;ratioP2;P2;SDS_P1;SDS_P2;PMS_P1;PMS_P2;Temp;Humidity;BMP_temperature;BMP_pressure;BME280_temperature;BME280_humidity;BME280_pressure;Samples;Min_cycle;Max_cycle;Signal;HPM_P1;HPM_P2
2023/10/21 00:02:10;;;;;;;142.48;37.40;;;9.50;99.90;;;;;;5073339;28;20090;-23
2023/10/21 00:04:35;;;;;;;116.68;35.97;;;8.70;99.90;;;;;;5055195;28;20048;-23
2023/10/21 00:07:01;;;;;;;138.63;36.97;;;8.60;99.90;;;;;;5073491;28;20055;-23
2023/10/21 00:09:27;;;;;;;157.00;38.45;;;8.90;99.90;;;;;;5074275;28;20040;-23
2023/10/21 00:11:53;;;;;;;124.05;35.72;;;8.90;99.90;;;;;;5073280;28;20094;-23
2023/10/21 00:14:19;;;;;;;117.10;34.63;;;9.70;99.90;;;;;;5073999;28;20068;-23
2023/10/21 00:16:45;;;;;;;133.77;38.80;;;9.10;99.90;;;;;;5071829;28;20095;-23
2023/10/21 00:19:10;;;;;;;145.75;38.38;;;8.90;99.90;;;;;;5077058;28;20045;-23
2023/10/21 00:21:37;;;;;;;140.05;39.58;;;9.10;99.90;;;;;;5076083;28;20048;-23
2023/10/21 00:24:03;;;;;;;129.35;36.90;;;9.30;99.90;;;;;;5077309;28;20445;-23
2023/10/21 00:26:29;;;;;;;160.63;40.80;;;10.20;99.90;;;;;;5076296;28;20052;-23
2023/10/21 00:28:55;;;;;;;117.55;34.97;;;10.10;99.90;;;;;;5077234;28;20132;-23
2023/10/21 00:31:21;;;;;;;148.25;37.40;;;10.40;99.90;;;;;;5077143;28;20105;-23
2023/10/21 00:33:47;;;;;;;160.93;37.20;;;10.40;99.90;;;;;;5077320;28;20052;-23
2023/10/21 00:36:12;;;;;;;117.20;35.08;;;9.40;99.90;;;;;;5077296;28;20041;-23
2023/10/21 00:38:38;;;;;;;104.13;33.42;;;10.50;99.90;;;;;;5077042;28;20044;-23
2023/10/21 00:41:04;;;;;;;114.65;34.92;;;9.70;99.90;;;;;;5076801;28;20044;-23
2023/10/21 00:43:40;;;;;;;106.30;34.13;;;9.90;99.90;;;;;;5077674;28;20048;-23
2023/10/21 00:46:19;;;;;;;103.90;33.53;;;10.80;99.90;;;;;;5075637;28;20509;-23
2023/10/21 00:48:46;;;;;;;99.93;33.40;;;10.70;99.90;;;;;;5075985;28;20083;-23
2023/10/21 00:51:12;;;;;;;81.95;30.55;;;10.80;99.90;;;;;;5076790;28;20048;-23
2023/10/21 00:53:38;;;;;;;104.70;33.05;;;10.20;99.90;;;;;;5076987;28;20505;-23
2023/10/21 00:56:08;;;;;;;113.38;32.22;;;10.20;99.90;;;;;;5076394;28;20561;-23
2023/10/21 00:58:35;;;;;;;106.68;34.28;;;11.00;99.90;;;;;;5076620;28;20055;-23
2023/10/21 01:01:06;;;;;;;92.90;31.45;;;10.70;99.90;;;;;;5077125;28;20095;-22
2023/10/21 01:03:37;;;;;;;85.30;28.33;;;9.90;99.90;;;;;;5076161;28;20048;-23
2023/10/21 01:06:03;;;;;;;88.43;28.23;;;10.10;99.90;;;;;;5077050;28;20059;-23
2023/10/21 01:08:29;;;;;;;77.03;28.13;;;10.90;99.90;;;;;;5076452;28;20055;-23
2023/10/21 01:10:58;;;;;;;71.72;27.38;;;10.60;99.90;;;;;;5076445;28;20123;-23
2023/10/21 01:13:23;;;;;;;91.82;28.27;;;10.80;99.90;;;;;;5076376;28;20124;-23
2023/10/21 01:15:49;;;;;;;67.03;25.60;;;11.30;99.90;;;;;;5076324;28;20087;-23
2023/10/21 01:18:15;;;;;;;79.55;26.13;;;11.10;99.90;;;;;;5076288;28;20084;-23
2023/10/21 01:20:41;;;;;;;93.45;28.27;;;11.10;99.90;;;;;;5076320;28;20052;-23
2023/10/21 01:23:08;;;;;;;83.68;28.20;;;10.60;99.90;;;;;;5075451;28;20040;-23
2023/10/21 01:25:34;;;;;;;69.57;26.15;;;11.60;99.90;;;;;;5076199;28;20132;-23
2023/10/21 01:28:00;;;;;;;63.13;24.77;;;11.50;99.90;;;;;;5076137;28;20052;-23
2023/10/21 01:30:26;;;;;;;64.82;26.02;;;11.40;99.90;;;;;;5074924;28;20045;-23
2023/10/21 01:32:52;;;;;;;65.55;26.27;;;10.70;99.90;;;;;;5058396;28;20049;-23
2023/10/21 01:35:19;;;;;;;71.32;26.73;;;11.10;99.90;;;;;;5075998;28;20375;-23
2023/10/21 01:37:45;;;;;;;66.82;24.55;;;11.00;99.90;;;;;;5075924;28;20529;-23
2023/10/21 01:40:12;;;;;;;64.47;25.80;;;11.10;99.90;;;;;;5075560;28;20378;-23
2023/10/21 01:42:39;;;;;;;72.95;26.45;;;11.60;99.90;;;;;;5076072;28;20119;-23
2023/10/21 01:45:06;;;;;;;72.03;26.77;;;12.00;99.90;;;;;;5076060;28;20479;-23
2023/10/21 01:47:32;;;;;;;87.72;27.60;;;10.70;99.90;;;;;;5075606;28;20129;-23
2023/10/21 01:49:58;;;;;;;97.90;29.98;;;10.80;99.90;;;;;;5074210;28;20103;-23
2023/10/21 01:52:24;;;;;;;106.15;29.95;;;10.90;99.90;;;;;;5075301;28;20040;-23
2023/10/21 01:54:53;;;;;;;113.72;32.75;;;11.60;99.90;;;;;;5075625;28;20041;-23
2023/10/21 01:57:19;;;;;;;143.60;35.33;;;11.40;99.90;;;;;;5075148;28;20359;-23
2023/10/21 01:59:45;;;;;;;118.82;33.42;;;11.10;99.90;;;;;;5075547;28;20053;-23
2023/10/21 02:02:11;;;;;;;114.45;33.15;;;11.00;99.90;;;;;;5075296;28;20126;-23
2023/10/21 02:04:37;;;;;;;137.27;34.65;;;10.30;99.90;;;;;;5075822;28;20139;-23
2023/10/21 02:07:03;;;;;;;111.95;34.67;;;9.90;99.90;;;;;;5075351;28;20048;-22
2023/10/21 02:09:29;;;;;;;131.88;34.58;;;10.50;99.90;;;;;;5075298;28;20048;-22
2023/10/21 02:11:55;;;;;;;128.85;35.95;;;10.50;99.90;;;;;;5075266;28;20041;-23
2023/10/21 02:14:22;;;;;;;120.55;35.28;;;9.60;99.90;;;;;;5075249;28;20127;-22
2023/10/21 02:16:55;;;;;;;119.85;35.70;;;10.20;99.90;;;;;;5073981;28;20048;-22
2023/10/21 02:19:21;;;;;;;142.32;37.83;;;10.00;99.90;;;;;;5073951;28;20075;-22
2023/10/21 02:21:47;;;;;;;121.60;36.63;;;9.70;99.90;;;;;;5075051;28;20041;-23
2023/10/21 02:24:13;;;;;;;131.60;37.78;;;9.40;99.90;;;;;;5075828;28;20109;-23
2023/10/21 02:26:40;;;;;;;125.72;38.53;;;9.40;99.90;;;;;;5074985;28;20052;-23
2023/10/21 02:29:06;;;;;;;149.32;40.00;;;10.50;99.90;;;;;;5074909;28;20052;-22
2023/10/21 02:31:31;;;;;;;143.52;38.72;;;10.50;99.90;;;;;;5075516;28;20175;-23
2023/10/21 02:33:58;;;;;;;188.05;43.55;;;9.30;99.90;;;;;;5074871;28;20048;-22
2023/10/21 02:36:24;;;;;;;176.07;42.03;;;9.20;99.90;;;;;;5073843;28;20486;-23
2023/10/21 02:38:53;;;;;;;177.48;42.55;;;10.30;99.90;;;;;;5074775;28;20049;-22
2023/10/21 02:41:19;;;;;;;160.35;41.45;;;10.40;99.90;;;;;;5072429;28;20054;-23
2023/10/21 02:43:45;;;;;;;166.35;42.90;;;10.30;99.90;;;;;;5074581;28;20382;-22
2023/10/21 02:46:13;;;;;;;169.07;41.80;;;9.20;99.90;;;;;;5074626;28;20102;-22
2023/10/21 02:48:39;;;;;;;174.65;43.38;;;9.00;99.90;;;;;;5074538;28;20136;-22
2023/10/21 02:51:23;;;;;;;224.25;47.35;;;10.10;99.90;;;;;;5074513;28;20084;-22
2023/10/21 02:53:49;;;;;;;195.82;43.40;;;9.80;99.90;;;;;;5074568;28;20059;-23
2023/10/21 02:56:15;;;;;;;175.23;43.10;;;9.40;99.90;;;;;;5074433;28;20048;-22
2023/10/21 02:58:41;;;;;;;197.15;43.22;;;8.80;99.90;;;;;;5073726;28;20378;-23
2023/10/21 03:01:16;;;;;;;185.80;44.17;;;8.80;99.90;;;;;;5074164;28;20501;-22
2023/10/21 03:03:43;;;;;;;201.88;45.10;;;8.80;99.90;;;;;;5074040;28;20051;-22
2023/10/21 03:06:09;;;;;;;179.93;43.42;;;8.80;99.90;;;;;;5074544;28;20474;-22
2023/10/21 03:08:38;;;;;;;195.85;44.20;;;8.80;99.90;;;;;;5074149;28;20075;-22
2023/10/21 03:11:05;;;;;;;200.52;45.03;;;8.70;99.90;;;;;;5073424;28;20041;-22
2023/10/21 03:13:32;;;;;;;183.40;43.30;;;8.80;99.90;;;;;;5073763;28;20095;-22
2023/10/21 03:15:58;;;;;;;229.27;47.05;;;9.70;99.90;;;;;;5073988;28;20045;-22
2023/10/21 03:18:25;;;;;;;191.88;43.97;;;9.60;99.90;;;;;;5074012;28;20177;-22
2023/10/21 03:20:52;;;;;;;213.48;46.50;;;10.00;99.90;;;;;;5073955;28;20040;-22
2023/10/21 03:23:18;;;;;;;195.50;44.45;;;9.90;99.90;;;;;;5073869;28;20525;-22
2023/10/21 03:25:54;;;;;;;181.63;42.60;;;10.00;99.90;;;;;;5073598;28;20398;-22
2023/10/21 03:28:21;;;;;;;201.70;42.45;;;9.00;99.90;;;;;;5074202;28;20052;-22
2023/10/21 03:30:48;;;;;;;184.80;43.75;;;8.90;99.90;;;;;;5073169;28;20123;-22
2023/10/21 03:33:14;;;;;;;241.82;48.10;;;8.90;99.90;;;;;;5073825;28;20047;-22
2023/10/21 03:35:39;;;;;;;176.27;43.20;;;9.30;99.90;;;;;;5073797;28;20044;-22
2023/10/21 03:38:05;;;;;;;181.93;42.17;;;9.30;99.90;;;;;;5073480;28;20131;-22
2023/10/21 03:40:31;;;;;;;216.23;44.65;;;8.70;99.90;;;;;;5072582;28;20044;-22
2023/10/21 03:42:57;;;;;;;261.40;48.80;;;9.00;99.90;;;;;;5074260;28;20068;-22
2023/10/21 03:45:22;;;;;;;191.80;43.70;;;8.70;99.90;;;;;;5073682;28;20055;-22
2023/10/21 03:47:48;;;;;;;170.85;42.95;;;8.60;99.90;;;;;;5073697;28;20091;-22
2023/10/21 03:50:14;;;;;;;158.57;42.45;;;8.70;99.90;;;;;;5073320;28;20040;-22
2023/10/21 03:52:40;;;;;;;194.93;44.00;;;8.70;99.90;;;;;;5072614;28;20044;-22
2023/10/21 03:55:06;;;;;;;176.23;43.60;;;9.80;99.90;;;;;;5072443;28;20048;-22
2023/10/21 03:57:32;;;;;;;177.68;43.70;;;9.00;99.90;;;;;;5073533;28;20055;-22
2023/10/21 04:00:00;;;;;;;155.25;40.85;;;8.70;99.90;;;;;;5072613;28;20048;-22
2023/10/21 04:02:26;;;;;;;164.52;41.35;;;9.30;99.90;;;;;;5073914;28;20128;-22
2023/10/21 04:04:52;;;;;;;149.68;42.53;;;8.70;99.90;;;;;;5072221;28;20115;-22
2023/10/21 04:07:17;;;;;;;165.13;42.08;;;8.70;99.90;;;;;;5073518;28;20505;-22
2023/10/21 04:09:43;;;;;;;186.00;45.85;;;9.40;99.90;;;;;;5073469;28;20479;-22
2023/10/21 04:12:09;;;;;;;209.57;46.40;;;8.90;99.90;;;;;;5072477;28;20044;-22
2023/10/21 04:14:36;;;;;;;201.18;46.60;;;9.30;99.90;;;;;;5072442;28;20397;-22
2023/10/21 04:17:02;;;;;;;202.48;46.15;;;8.70;99.90;;;;;;5073373;28;20055;-22
2023/10/21 04:19:27;;;;;;;157.30;43.08;;;9.80;99.90;;;;;;5073379;28;20045;-22
2023/10/21 04:21:53;;;;;;;195.57;46.00;;;9.40;99.90;;;;;;5073277;28;20040;-22
2023/10/21 04:24:19;;;;;;;181.10;46.20;;;9.30;99.90;;;;;;5073370;28;20048;-22
2023/10/21 04:26:44;;;;;;;186.23;45.10;;;8.80;99.90;;;;;;5073858;28;20053;-22
2023/10/21 04:29:10;;;;;;;190.23;46.78;;;9.60;99.90;;;;;;5072124;28;20109;-22
2023/10/21 04:31:38;;;;;;;197.88;47.58;;;9.40;99.90;;;;;;5073826;28;20149;-21
2023/10/21 04:34:04;;;;;;;206.70;48.92;;;8.60;99.90;;;;;;5073222;28;20123;-22
2023/10/21 04:36:30;;;;;;;212.65;47.88;;;9.80;99.90;;;;;;5072232;28;20136;-22
2023/10/21 04:38:56;;;;;;;169.75;44.45;;;9.70;99.90;;;;;;5073197;28;20098;-22
2023/10/21 04:41:21;;;;;;;182.88;46.40;;;9.80;99.90;;;;;;5072265;28;20094;-22
2023/10/21 04:43:47;;;;;;;172.00;45.42;;;9.40;99.90;;;;;;5072719;28;20049;-22
2023/10/21 04:46:13;;;;;;;200.60;45.40;;;9.70;99.90;;;;;;5073726;28;20378;-22
2023/10/21 04:48:39;;;;;;;206.18;47.05;;;8.90;99.90;;;;;;5039780;28;20099;-22
2023/10/21 04:51:06;;;;;;;188.48;46.90;;;9.60;99.90;;;;;;5073049;28;20079;-21
2023/10/21 04:53:32;;;;;;;191.35;46.05;;;9.70;99.90;;;;;;5072069;28;20482;-21
2023/10/21 04:55:58;;;;;;;182.65;46.83;;;9.70;99.90;;;;;;5072989;28;20045;-21
2023/10/21 04:58:24;;;;;;;192.60;46.65;;;9.70;99.90;;;;;;5072974;28;20383;-21
2023/10/21 05:00:49;;;;;;;180.52;45.17;;;9.10;99.90;;;;;;5071463;28;20049;-21
2023/10/21 05:03:15;;;;;;;177.70;44.75;;;8.90;99.90;;;;;;5072805;28;20052;-21
2023/10/21 05:05:41;;;;;;;174.25;43.35;;;9.70;99.90;;;;;;5075105;28;20406;-21
2023/10/21 05:08:07;;;;;;;146.85;40.92;;;9.20;99.90;;;;;;5076488;28;20083;-21
2023/10/21 05:10:32;;;;;;;193.07;44.33;;;8.50;99.90;;;;;;5076027;28;20048;-21
2023/10/21 05:12:58;;;;;;;188.60;45.58;;;9.10;99.90;;;;;;5076436;28;20037;-22
2023/10/21 05:15:24;;;;;;;167.57;42.45;;;9.60;99.90;;;;;;5076387;28;20047;-21
2023/10/21 05:17:50;;;;;;;206.05;45.47;;;9.00;99.90;;;;;;5075142;28;20084;-21
2023/10/21 05:20:15;;;;;;;164.85;42.40;;;8.70;99.90;;;;;;5058377;28;20101;-21
2023/10/21 05:22:42;;;;;;;179.70;44.38;;;9.00;99.90;;;;;;5076151;28;20127;-21
2023/10/21 05:25:09;;;;;;;169.65;42.67;;;9.60;99.90;;;;;;5076476;28;20447;-21
2023/10/21 05:27:36;;;;;;;194.32;43.33;;;8.40;99.90;;;;;;5074889;28;20119;-21
2023/10/21 05:30:02;;;;;;;192.00;42.40;;;8.50;99.90;;;;;;5074907;28;20455;-21
2023/10/21 05:32:27;;;;;;;161.40;41.85;;;8.70;99.90;;;;;;5076045;28;20127;-21
2023/10/21 05:34:53;;;;;;;199.07;43.97;;;8.80;99.90;;;;;;5076038;28;20123;-21
2023/10/21 05:37:19;;;;;;;148.88;41.30;;;8.30;99.90;;;;;;5076000;28;20497;-21
2023/10/21 05:39:45;;;;;;;159.32;41.58;;;9.50;99.90;;;;;;5075999;28;20056;-21
2023/10/21 05:42:11;;;;;;;179.75;42.65;;;9.50;99.90;;;;;;5075526;28;20450;-21
2023/10/21 05:44:37;;;;;;;145.43;40.05;;;9.40;99.90;;;;;;5075837;28;20102;-21
2023/10/21 05:47:03;;;;;;;149.30;40.85;;;9.50;99.90;;;;;;5075821;28;20053;-21
2023/10/21 05:49:29;;;;;;;132.15;38.60;;;9.50;99.90;;;;;;5075786;28;20052;-21
2023/10/21 05:51:55;;;;;;;170.43;40.65;;;9.50;99.90;;;;;;5076568;28;20098;-21
2023/10/21 05:54:20;;;;;;;140.93;38.00;;;9.50;99.90;;;;;;5058022;28;20368;-22
2023/10/21 05:56:46;;;;;;;136.85;39.72;;;8.40;99.90;;;;;;5075631;28;20114;-21
2023/10/21 05:59:12;;;;;;;129.20;36.67;;;8.50;99.90;;;;;;5074586;28;20047;-22
2023/10/21 06:01:38;;;;;;;122.72;34.88;;;9.60;99.90;;;;;;5057915;28;20052;-22
2023/10/21 06:04:03;;;;;;;123.45;35.00;;;9.60;99.90;;;;;;5057452;28;20105;-22
2023/10/21 06:06:29;;;;;;;128.05;36.92;;;8.60;99.90;;;;;;5075649;28;20429;-21
2023/10/21 06:08:55;;;;;;;148.55;37.95;;;8.60;99.90;;;;;;5075684;28;20124;-21
2023/10/21 06:11:21;;;;;;;144.13;38.35;;;9.40;99.90;;;;;;5075342;28;20055;-21
2023/10/21 06:13:48;;;;;;;121.55;36.28;;;8.70;99.90;;;;;;5075327;28;20045;-22
2023/10/21 06:16:13;;;;;;;111.60;33.10;;;9.80;99.90;;;;;;5075019;28;20055;-21
2023/10/21 06:18:40;;;;;;;113.35;34.03;;;9.80;99.90;;;;;;5075197;28;20052;-22
2023/10/21 06:21:06;;;;;;;109.43;32.30;;;8.70;99.90;;;;;;5075118;28;20568;-21
2023/10/21 06:23:31;;;;;;;119.20;34.33;;;9.90;99.90;;;;;;5075036;28;20115;-21
2023/10/21 06:25:57;;;;;;;109.03;31.85;;;9.90;99.90;;;;;;5074895;28;20098;-21
2023/10/21 06:28:23;;;;;;;120.30;33.83;;;9.60;99.90;;;;;;5074998;28;20087;-22
2023/10/21 06:30:49;;;;;;;127.15;35.28;;;9.20;99.90;;;;;;5074936;28;20653;-22
2023/10/21 06:33:15;;;;;;;112.88;34.30;;;9.20;99.90;;;;;;5074724;28;20047;-21
2023/10/21 06:35:41;;;;;;;104.80;32.75;;;9.10;99.90;;;;;;5074868;28;20052;-22
2023/10/21 06:38:08;;;;;;;110.13;31.83;;;9.80;99.90;;;;;;5074806;28;20147;-21
2023/10/21 06:40:34;;;;;;;105.22;31.63;;;10.10;99.90;;;;;;5056810;28;20558;-22
2023/10/21 06:43:00;;;;;;;90.43;30.95;;;10.00;99.90;;;;;;5074573;28;20068;-22
2023/10/21 06:45:27;;;;;;;92.82;31.27;;;9.10;99.90;;;;;;5073475;28;20467;-22
2023/10/21 06:47:52;;;;;;;106.30;31.83;;;9.50;99.90;;;;;;5075157;28;20044;-22
2023/10/21 06:50:19;;;;;;;74.88;27.73;;;10.20;99.90;;;;;;5074559;28;20055;-22
2023/10/21 06:52:44;;;;;;;97.25;30.20;;;9.30;99.90;;;;;;5074555;28;20119;-22
2023/10/21 06:55:10;;;;;;;87.22;30.58;;;9.80;99.90;;;;;;5074747;28;20107;-22
2023/10/21 06:57:37;;;;;;;82.43;30.27;;;10.00;99.90;;;;;;5074439;28;20433;-22
2023/10/21 07:00:03;;;;;;;79.65;29.02;;;9.30;99.90;;;;;;5074586;28;20489;-22
2023/10/21 07:02:29;;;;;;;75.35;29.17;;;9.40;99.90;;;;;;5056289;28;20552;-22
2023/10/21 07:04:56;;;;;;;86.07;32.35;;;9.50;99.90;;;;;;5073965;28;20056;-21
2023/10/21 07:07:22;;;;;;;80.05;29.20;;;9.60;99.90;;;;;;5074749;28;20052;-22
2023/10/21 07:09:48;;;;;;;91.43;31.30;;;10.10;99.90;;;;;;5074991;28;20094;-22
2023/10/21 07:12:14;;;;;;;85.55;29.85;;;9.90;99.90;;;;;;5074956;28;20056;-22
2023/10/21 07:14:40;;;;;;;68.95;28.00;;;10.90;99.90;;;;;;5072937;28;20490;-22
2023/10/21 07:17:07;;;;;;;67.72;27.38;;;9.90;99.90;;;;;;5074332;28;20501;-22
2023/10/21 07:19:32;;;;;;;65.07;26.85;;;11.00;99.90;;;;;;5072859;28;20044;-22
2023/10/21 07:21:58;;;;;;;61.38;27.17;;;10.10;99.90;;;;;;5072926;28;20044;-22
2023/10/21 07:24:24;;;;;;;56.10;26.70;;;11.40;99.90;;;;;;5074522;28;20044;-22
2023/10/21 07:26:50;;;;;;;66.65;27.45;;;10.20;99.90;;;;;;5073549;28;20135;-22
2023/10/21 07:29:15;;;;;;;65.65;28.42;;;10.30;99.90;;;;;;5072817;28;20044;-22
2023/10/21 07:31:43;;;;;;;59.53;26.10;;;10.30;99.90;;;;;;5073870;28;20390;-22
2023/10/21 07:34:11;;;;;;;72.22;27.35;;;10.70;99.90;;;;;;5074447;28;20372;-22
2023/10/21 07:36:37;;;;;;;60.38;27.30;;;11.70;99.90;;;;;;5073802;28;20052;-22
2023/10/21 07:39:04;;;;;;;60.63;27.13;;;11.50;99.90;;;;;;5074350;28;20051;-22
2023/10/21 07:41:30;;;;;;;51.60;24.70;;;11.90;99.90;;;;;;5073733;28;20063;-22
2023/10/21 07:43:56;;;;;;;59.25;26.98;;;11.80;99.90;;;;;;5073636;28;20044;-22
2023/10/21 07:46:22;;;;;;;63.60;27.52;;;10.70;99.90;;;;;;5072789;28;20119;-22
2023/10/21 07:48:47;;;;;;;54.00;24.65;;;11.20;99.90;;;;;;5074499;28;20041;-22
2023/10/21 07:51:13;;;;;;;57.25;26.05;;;10.90;99.90;;;;;;5073629;28;20044;-23
2023/10/21 07:53:40;;;;;;;55.58;25.40;;;12.30;99.90;;;;;;5073668;28;20044;-22
2023/10/21 07:56:06;;;;;;;49.75;24.23;;;11.40;99.90;;;;;;5073626;28;20052;-22
2023/10/21 07:58:32;;;;;;;64.15;26.23;;;12.10;99.90;;;;;;5073372;28;20050;-22
2023/10/21 08:00:57;;;;;;;50.40;24.52;;;12.30;99.90;;;;;;5073552;28;20048;-22
2023/10/21 08:03:23;;;;;;;51.88;25.08;;;11.40;99.90;;;;;;5071980;28;20044;-22
2023/10/21 08:05:49;;;;;;;53.45;24.67;;;12.70;99.90;;;;;;5073787;28;20064;-22
2023/10/21 08:08:14;;;;;;;53.55;24.70;;;11.40;99.90;;;;;;5073483;28;20048;-22
2023/10/21 08:10:40;;;;;;;51.47;24.85;;;12.50;99.90;;;;;;5072561;28;20045;-22
2023/10/21 08:13:06;;;;;;;48.30;23.77;;;12.20;99.90;;;;;;5074007;28;20458;-23
2023/10/21 08:15:32;;;;;;;46.90;22.63;;;12.50;99.90;;;;;;5056099;28;20044;-22
2023/10/21 08:17:58;;;;;;;44.80;22.15;;;12.50;99.90;;;;;;5073427;28;20045;-22
2023/10/21 08:20:24;;;;;;;47.67;23.48;;;11.70;99.90;;;;;;5073371;28;20049;-22
2023/10/21 08:22:51;;;;;;;50.72;23.95;;;12.90;99.90;;;;;;5073259;28;20487;-22
2023/10/21 08:25:16;;;;;;;54.72;24.90;;;12.00;99.90;;;;;;5073351;28;20048;-23
2023/10/21 08:27:43;;;;;;;41.92;22.55;;;12.90;99.90;;;;;;5073299;28;20390;-22
2023/10/21 08:30:09;;;;;;;39.42;21.45;;;11.70;99.90;;;;;;5074367;28;20059;-20
2023/10/21 08:32:36;;;;;;;44.30;22.15;;;12.00;99.90;;;;;;5073526;28;20043;-20
2023/10/21 08:35:03;;;;;;;57.90;24.90;;;12.50;99.90;;;;;;5072466;28;20123;-21
2023/10/21 08:37:28;;;;;;;44.78;22.35;;;13.10;99.90;;;;;;5073264;28;20094;-21
2023/10/21 08:39:54;;;;;;;43.42;23.77;;;13.40;99.90;;;;;;5076377;28;20045;-21
2023/10/21 08:42:25;;;;;;;46.13;21.88;;;13.10;99.90;;;;;;5076989;28;20045;-21
2023/10/21 08:44:53;;;;;;;47.97;24.42;;;12.50;99.90;;;;;;5077346;28;20098;-21
2023/10/21 08:47:19;;;;;;;42.90;22.30;;;12.60;99.90;;;;;;5077947;28;20114;-21
2023/10/21 08:49:48;;;;;;;48.58;24.17;;;12.40;99.90;;;;;;5075683;28;20457;-21
2023/10/21 08:52:14;;;;;;;47.13;23.13;;;13.40;99.90;;;;;;5076898;28;20498;-21
2023/10/21 08:54:45;;;;;;;42.22;21.65;;;12.50;99.90;;;;;;5075791;28;20526;-21
2023/10/21 08:57:12;;;;;;;41.58;21.65;;;12.50;99.90;;;;;;5076905;28;20048;-21
2023/10/21 08:59:38;;;;;;;39.55;20.67;;;13.20;99.90;;;;;;5076658;28;20051;-21
2023/10/21 09:02:05;;;;;;;38.50;22.48;;;13.30;99.90;;;;;;5077161;28;20056;-21
2023/10/21 09:04:32;;;;;;;36.85;20.83;;;13.40;99.90;;;;;;5076218;28;20456;-21
2023/10/21 09:06:59;;;;;;;33.28;19.05;;;;;;;;;;5076625;28;20124;-21
2023/10/21 09:09:26;;;;;;;37.83;21.40;;;14.10;99.90;;;;;;5077302;28;20138;-21
2023/10/21 09:12:15;;;;;;;29.17;17.35;;;14.70;99.90;;;;;;5077001;28;20059;-21
2023/10/21 09:14:57;;;;;;;29.17;16.38;;;15.10;99.90;;;;;;5077025;28;20490;-22
2023/10/21 09:17:39;;;;;;;30.33;16.17;;;15.40;99.90;;;;;;5076354;28;20123;-22
2023/10/21 09:20:13;;;;;;;24.80;14.77;;;15.40;99.90;;;;;;5076334;28;20127;-22
2023/10/21 09:22:40;;;;;;;26.17;17.77;;;15.70;99.90;;;;;;5076234;28;20080;-22
2023/10/21 09:25:09;;;;;;;20.85;15.18;;;16.10;99.90;;;;;;5076794;28;20052;-22
2023/10/21 09:27:36;;;;;;;16.38;13.13;;;16.50;99.90;;;;;;5076187;28;20044;-22
2023/10/21 09:30:04;;;;;;;21.40;11.15;;;16.20;99.90;;;;;;5076164;28;20098;-22
2023/10/21 09:32:30;;;;;;;18.15;9.93;;;15.60;99.90;;;;;;5076075;28;20090;-22
2023/10/21 09:35:24;;;;;;;18.60;10.63;;;15.20;99.90;;;;;;5076061;28;20094;-22
2023/10/21 09:37:50;;;;;;;16.48;9.18;;;15.00;99.90;;;;;;5075997;28;20142;-22
2023/10/21 09:40:17;;;;;;;18.02;8.98;;;15.00;99.90;;;;;;5075941;28;20047;-22
2023/10/21 09:42:44;;;;;;;13.65;8.25;;;15.20;99.90;;;;;;5077875;28;20036;-22
2023/10/21 09:45:15;;;;;;;11.07;7.38;;;15.40;99.90;;;;;;5090201;28;20047;-22
2023/10/21 09:47:42;;;;;;;16.42;6.85;;;15.30;99.90;;;;;;5096590;28;20439;-22
2023/10/21 09:50:10;;;;;;;11.95;7.03;;;15.20;99.90;;;;;;5096235;28;20063;-22
2023/10/21 09:52:54;;;;;;;12.65;6.00;;;15.00;99.90;;;;;;5095968;28;20074;-22
2023/10/21 09:55:24;;;;;;;13.57;5.97;;;14.90;99.90;;;;;;5095938;28;20513;-22
2023/10/21 09:57:54;;;;;;;10.95;6.18;;;14.70;99.90;;;;;;5095954;28;20409;-22
2023/10/21 10:00:21;;;;;;;13.18;6.05;;;14.60;99.90;;;;;;5095804;28;20520;-22
2023/10/21 10:02:49;;;;;;;14.20;5.68;;;14.50;99.90;;;;;;5095242;28;20181;-22
2023/10/21 10:05:18;;;;;;;12.23;6.00;;;14.50;99.90;;;;;;5095357;28;20134;-22
2023/10/21 10:07:45;;;;;;;8.77;5.43;;;14.50;99.90;;;;;;5095625;28;20557;-22
2023/10/21 10:10:13;;;;;;;9.18;5.40;;;14.50;99.90;;;;;;5096089;28;20397;-22
2023/10/21 10:13:01;;;;;;;6.50;4.43;;;14.50;99.90;;;;;;5095160;28;20122;-22
2023/10/21 10:15:38;;;;;;;9.73;4.53;;;14.40;99.90;;;;;;5094161;28;20483;-22
2023/10/21 10:18:07;;;;;;;10.45;4.50;;;14.40;99.90;;;;;;5096029;28;20174;-22
2023/10/21 10:20:33;;;;;;;8.10;4.35;;;14.30;99.90;;;;;;5094419;28;20127;-22
2023/10/21 10:22:59;;;;;;;6.25;3.90;;;14.40;99.90;;;;;;5093759;28;20398;-22
2023/10/21 10:25:31;;;;;;;6.47;3.50;;;14.50;99.90;;;;;;5095271;28;20040;-22
2023/10/21 10:28:00;;;;;;;9.82;3.75;;;14.50;99.90;;;;;;5095311;28;20047;-22
2023/10/21 10:30:31;;;;;;;7.05;3.08;;;14.40;99.90;;;;;;5094015;28;20044;-22
2023/10/21 10:33:02;;;;;;;6.85;2.67;;;14.40;99.90;;;;;;5095810;28;20082;-22
2023/10/21 10:35:32;;;;;;;7.35;3.80;;;14.30;99.90;;;;;;5095200;28;20051;-22
2023/10/21 10:37:59;;;;;;;8.10;3.08;;;14.20;99.90;;;;;;5095125;28;20044;-23
2023/10/21 10:40:36;;;;;;;9.02;4.25;;;14.20;99.90;;;;;;5094940;28;20040;-23
2023/10/21 10:43:10;;;;;;;10.02;6.63;;;13.90;99.90;;;;;;5095535;28;20047;-22
2023/10/21 10:45:37;;;;;;;12.13;5.20;;;14.10;99.90;;;;;;5094119;28;20079;-22
2023/10/21 10:48:04;;;;;;;8.80;6.03;;;14.00;99.90;;;;;;5094914;28;20051;-22
2023/10/21 10:50:31;;;;;;;11.07;8.60;;;14.20;99.90;;;;;;5095089;28;20606;-22
2023/10/21 10:52:57;;;;;;;7.13;5.18;;;14.00;99.90;;;;;;5095383;28;20374;-23
2023/10/21 10:55:23;;;;;;;8.10;4.18;;;14.30;99.90;;;;;;5094699;28;20440;-23
2023/10/21 10:57:53;;;;;;;8.65;4.00;;;14.20;99.90;;;;;;5094687;28;20040;-23
2023/10/21 11:00:22;;;;;;;6.90;4.35;;;14.40;99.90;;;;;;5094666;28;20058;-23
2023/10/21 11:02:49;;;;;;;6.65;4.53;;;14.10;99.90;;;;;;5093613;28;20044;-23
2023/10/21 11:05:22;;;;;;;5.30;2.80;;;14.00;99.90;;;;;;5094658;28;20052;-23
2023/10/21 11:07:52;;;;;;;8.23;3.53;;;13.90;99.90;;;;;;5093628;28;20091;-23
2023/10/21 11:10:22;;;;;;;7.50;3.45;;;13.90;99.90;;;;;;5094460;28;20490;-23
2023/10/21 11:12:49;;;;;;;3.85;2.28;;;13.90;99.90;;;;;;5094441;28;20119;-23
2023/10/21 11:15:16;;;;;;;4.20;2.00;;;13.90;99.90;;;;;;5094074;28;20486;-22
2023/10/21 11:17:46;;;;;;;5.45;1.83;;;13.80;99.90;;;;;;5094222;28;20056;-23
2023/10/21 11:20:13;;;;;;;5.72;2.13;;;13.60;99.90;;;;;;5094322;28;20555;-23
2023/10/21 11:22:40;;;;;;;5.85;2.50;;;13.90;99.90;;;;;;5092997;28;20086;-23
2023/10/21 11:25:07;;;;;;;4.20;2.60;;;13.80;99.90;;;;;;5094525;28;20051;-24
2023/10/21 11:27:33;;;;;;;5.15;2.40;;;14.00;99.90;;;;;;5094206;28;20047;-23
2023/10/21 11:30:00;;;;;;;4.93;2.33;;;13.90;99.90;;;;;;5094163;28;20052;-23
2023/10/21 11:32:30;;;;;;;2.92;1.65;;;13.80;99.90;;;;;;5094147;28;20051;-24
2023/10/21 11:35:01;;;;;;;2.80;1.20;;;13.60;99.90;;;;;;5094053;28;20101;-24
2023/10/21 11:37:27;;;;;;;3.15;1.17;;;13.70;99.90;;;;;;5094077;28;20047;-23
2023/10/21 11:39:53;;;;;;;2.30;1.10;;;14.00;99.90;;;;;;5092829;28;20398;-24
2023/10/21 11:42:19;;;;;;;3.72;1.17;;;14.50;99.90;;;;;;5076189;28;20048;-24
2023/10/21 11:45:01;;;;;;;3.00;1.20;;;14.70;99.90;;;;;;5092975;28;20140;-24
2023/10/21 11:47:29;;;;;;;3.13;0.75;;;14.10;99.90;;;;;;5076694;28;20048;-24
2023/10/21 11:49:55;;;;;;;1.70;0.50;;;13.70;99.90;;;;;;5093930;28;20131;-24
2023/10/21 11:52:22;;;;;;;1.73;0.40;;;13.60;99.90;;;;;;5093883;28;20043;-24
2023/10/21 12:01:48;;;;;;;1.92;0.50;;;13.40;99.90;;;;;;5079392;28;20052;-23
2023/10/21 12:12:11;;;;;;;1.73;0.65;;;13.40;99.90;;;;;;5062020;28;20044;-23
2023/10/21 12:15:17;;;;;;;3.75;1.02;;;13.40;99.90;;;;;;5095801;28;20127;-23
2023/10/21 12:31:23;;;;;;;2.35;0.50;;;13.60;99.90;;;;;;5096545;28;20048;-22
2023/10/21 12:38:34;;;;;;;2.15;0.35;;;14.10;99.90;;;;;;5096793;28;20052;-23
2023/10/21 12:43:35;;;;;;;3.00;0.68;;;14.40;99.90;;;;;;5097799;28;20045;-23
2023/10/21 12:46:17;;;;;;;1.65;0.70;;;14.40;99.90;;;;;;5097259;28;20044;-22
2023/10/21 12:48:52;;;;;;;3.20;0.50;;;14.30;99.90;;;;;;5097614;28;20044;-22
2023/10/21 12:51:20;;;;;;;5.13;0.70;;;14.20;99.90;;;;;;5096077;28;20139;-23
2023/10/21 12:53:46;;;;;;;2.17;0.68;;;14.10;99.90;;;;;;5097109;28;20059;-23
2023/10/21 12:56:13;;;;;;;3.13;0.43;;;13.90;99.90;;;;;;5079256;28;20046;-23
2023/10/21 12:58:40;;;;;;;2.95;0.40;;;13.80;99.90;;;;;;5097037;28;20048;-23
2023/10/21 13:01:09;;;;;;;2.20;0.68;;;13.70;99.90;;;;;;5097525;28;20044;-23
2023/10/21 13:03:37;;;;;;;0.77;0.22;;;13.80;99.90;;;;;;5096763;28;20452;-23
2023/10/21 13:06:05;;;;;;;1.65;0.52;;;13.80;99.90;;;;;;5095495;28;20113;-23
2023/10/21 13:08:32;;;;;;;2.88;0.60;;;14.50;99.90;;;;;;5096849;28;20051;-23